createdAt,value
2023-02-06T00:01:52.289Z,100.00
2023-02-06T00:04:54.858Z,100.00
2023-02-06T00:07:57.710Z,100.00
2023-02-06T00:11:04.865Z,100.00
2023-02-06T00:14:07.865Z,100.00
2023-02-06T00:17:11.792Z,100.00
2023-02-06T00:20:14.989Z,100.00
2023-02-06T00:23:17.642Z,100.00
2023-02-06T00:26:20.547Z,100.00
2023-02-06T00:29:23.132Z,100.00
2023-02-06T00:32:27.217Z,100.00
2023-02-06T00:35:29.830Z,100.00
2023-02-06T00:38:32.557Z,100.00
2023-02-06T00:41:35.128Z,100.00
2023-02-06T00:44:37.718Z,100.00
2023-02-06T00:47:41.690Z,100.00
2023-02-06T00:50:44.287Z,100.00
2023-02-06T00:53:47.780Z,100.00
2023-02-06T00:56:51.641Z,100.00
2023-02-06T00:59:54.655Z,99.81
2023-02-06T01:02:58.690Z,99.79
2023-02-06T01:06:01.303Z,99.51
2023-02-06T01:09:04.220Z,99.55
2023-02-06T01:12:07.358Z,99.36
2023-02-06T01:15:12.347Z,99.82
2023-02-06T01:18:16.287Z,99.27
2023-02-06T01:21:21.551Z,100.00
2023-02-06T01:24:24.202Z,99.56
2023-02-06T01:27:27.052Z,100.00
2023-02-06T01:30:29.660Z,100.00
2023-02-06T01:33:33.613Z,100.00
2023-02-06T01:36:36.225Z,99.39
2023-02-06T01:39:38.908Z,99.55
2023-02-06T01:42:41.801Z,100.00
2023-02-06T01:45:46.290Z,99.63
2023-02-06T01:48:52.674Z,99.70
2023-02-06T01:51:59.514Z,99.24
2023-02-06T01:55:04.779Z,99.61
2023-02-06T01:58:09.824Z,99.87
2023-02-06T02:01:12.804Z,100.00
2023-02-06T02:04:20.031Z,99.21
2023-02-06T02:07:27.125Z,99.71
2023-02-06T02:10:30.787Z,99.96
2023-02-06T02:13:34.259Z,99.47
2023-02-06T02:16:47.846Z,99.94
2023-02-06T02:20:27.072Z,99.70
2023-02-06T02:23:37.588Z,99.12
2023-02-06T02:27:11.275Z,99.29
2023-02-06T02:30:55.699Z,99.02
2023-02-06T02:34:21.940Z,99.42
2023-02-06T02:37:33.322Z,98.69
2023-02-06T02:40:46.126Z,99.00
2023-02-06T02:43:54.932Z,99.22
2023-02-06T02:47:02.957Z,99.33
2023-02-06T02:50:07.274Z,98.63
2023-02-06T02:53:13.265Z,99.21
2023-02-06T02:56:18.960Z,98.92
2023-02-06T02:59:26.007Z,99.33
2023-02-06T03:02:33.371Z,100.00
2023-02-06T03:05:41.281Z,98.88
2023-02-06T03:08:51.005Z,98.26
2023-02-06T03:12:00.453Z,98.86
2023-02-06T03:15:09.138Z,98.79
2023-02-06T03:18:14.671Z,98.88
2023-02-06T03:21:20.562Z,98.55
2023-02-06T03:24:27.009Z,98.81
2023-02-06T03:27:31.261Z,98.42
2023-02-06T03:30:35.450Z,98.72
2023-02-06T03:33:46.834Z,98.39
2023-02-06T03:36:50.757Z,98.31
2023-02-06T03:39:55.465Z,97.76
2023-02-06T03:43:01.976Z,97.13
2023-02-06T03:46:07.465Z,98.01
2023-02-06T03:49:14.568Z,98.19
2023-02-06T03:52:21.819Z,97.95
2023-02-06T03:55:26.206Z,97.89
2023-02-06T03:58:28.852Z,97.79
2023-02-06T04:01:31.996Z,98.11
2023-02-06T04:04:38.880Z,97.79
2023-02-06T04:07:41.490Z,98.12
2023-02-06T04:10:45.427Z,98.25
2023-02-06T04:13:47.989Z,98.44
2023-02-06T04:16:50.612Z,98.15
2023-02-06T04:19:53.209Z,97.66
2023-02-06T04:22:55.818Z,97.27
2023-02-06T04:25:59.749Z,97.79
2023-02-06T04:29:02.366Z,98.60
2023-02-06T04:32:05.562Z,97.99
2023-02-06T04:35:08.760Z,97.13
2023-02-06T04:38:11.380Z,97.47
2023-02-06T04:41:15.520Z,97.39
2023-02-06T04:44:18.274Z,97.64
2023-02-06T04:47:20.826Z,97.74
2023-02-06T04:50:23.406Z,97.75
2023-02-06T04:53:25.979Z,97.71
2023-02-06T04:56:29.953Z,97.67
2023-02-06T04:59:32.559Z,98.22
2023-02-06T05:02:37.449Z,97.96
2023-02-06T05:05:40.216Z,97.86
2023-02-06T05:08:42.991Z,97.97
2023-02-06T05:11:46.945Z,98.51
2023-02-06T05:14:49.523Z,97.78
2023-02-06T05:17:52.130Z,97.12
2023-02-06T05:20:54.709Z,97.06
2023-02-06T05:23:57.335Z,98.19
2023-02-06T05:27:01.275Z,98.12
2023-02-06T05:30:03.913Z,97.87
2023-02-06T05:33:06.510Z,98.19
2023-02-06T05:36:09.667Z,97.94
2023-02-06T05:39:12.251Z,97.56
2023-02-06T05:42:16.195Z,98.44
2023-02-06T05:45:18.992Z,98.37
2023-02-06T05:48:21.701Z,97.24
2023-02-06T05:51:24.304Z,97.91
2023-02-06T05:54:27.061Z,98.29
2023-02-06T05:57:31.126Z,98.07
2023-02-06T06:00:33.833Z,97.58
2023-02-06T06:03:38.117Z,97.88
2023-02-06T06:06:40.728Z,97.74
2023-02-06T06:09:43.310Z,97.74
2023-02-06T06:12:47.271Z,97.90
2023-02-06T06:15:51.993Z,97.52
2023-02-06T06:18:55.659Z,98.27
2023-02-06T06:21:58.503Z,97.81
2023-02-06T06:25:01.153Z,97.47
2023-02-06T06:28:05.531Z,97.79
2023-02-06T06:31:12.607Z,97.75
2023-02-06T06:34:15.355Z,97.22
2023-02-06T06:37:17.944Z,97.80
2023-02-06T06:40:20.661Z,97.88
2023-02-06T06:43:24.631Z,97.70
2023-02-06T06:46:27.565Z,96.88
2023-02-06T06:49:30.158Z,96.92
2023-02-06T06:52:32.786Z,97.25
2023-02-06T06:55:35.769Z,96.97
2023-02-06T06:58:39.994Z,97.20
2023-02-06T07:01:42.582Z,97.84
2023-02-06T07:04:45.187Z,96.30
2023-02-06T07:07:47.775Z,96.70
2023-02-06T07:10:50.351Z,96.35
2023-02-06T07:13:54.274Z,96.74
2023-02-06T07:16:57.176Z,96.85
2023-02-06T07:19:59.840Z,97.48
2023-02-06T07:23:02.439Z,97.56
2023-02-06T07:26:05.435Z,97.19
2023-02-06T07:29:09.397Z,97.18
2023-02-06T07:32:12.516Z,97.24
2023-02-06T07:35:15.813Z,98.50
2023-02-06T07:38:18.409Z,97.81
2023-02-06T07:41:21.035Z,97.70
2023-02-06T07:44:24.967Z,98.07
2023-02-06T07:47:27.583Z,98.94
2023-02-06T07:50:30.217Z,98.51
2023-02-06T07:53:32.876Z,99.19
2023-02-06T07:56:35.553Z,99.47
2023-02-06T07:59:39.472Z,99.69
2023-02-06T08:02:42.471Z,100.00
2023-02-06T08:05:45.053Z,100.00
2023-02-06T08:08:48.229Z,100.00
2023-02-06T08:11:50.781Z,100.00
2023-02-06T08:14:54.722Z,100.00
2023-02-06T08:17:57.306Z,100.00
2023-02-06T08:21:03.635Z,100.00
2023-02-06T08:24:06.509Z,100.00
2023-02-06T08:27:09.074Z,100.00
2023-02-06T08:30:14.442Z,100.00
2023-02-06T08:33:17.043Z,100.00
2023-02-06T08:36:21.154Z,100.00
2023-02-06T08:39:23.717Z,100.00
2023-02-06T08:42:26.361Z,100.00
2023-02-06T08:45:30.312Z,100.00
2023-02-06T08:48:32.881Z,100.00
2023-02-06T08:51:36.696Z,100.00
2023-02-06T08:54:39.308Z,100.00
2023-02-06T08:57:41.919Z,100.00
2023-02-06T09:00:45.876Z,100.00
2023-02-06T09:03:49.170Z,100.00
2023-02-06T09:06:52.111Z,100.00
2023-02-06T09:09:54.728Z,100.00
2023-02-06T09:12:57.618Z,100.00
2023-02-06T09:16:01.721Z,100.00
2023-02-06T09:19:04.790Z,100.00
2023-02-06T09:22:07.412Z,100.00
2023-02-06T09:25:09.976Z,100.00
2023-02-06T09:28:12.823Z,100.00
2023-02-06T09:31:16.886Z,100.00
2023-02-06T09:34:19.659Z,100.00
2023-02-06T09:37:23.370Z,100.00
2023-02-06T09:40:30.335Z,100.00
2023-02-06T09:43:34.805Z,100.00
2023-02-06T09:46:48.435Z,100.00
2023-02-06T09:49:54.024Z,100.00
2023-02-06T09:53:06.706Z,99.67
2023-02-06T09:56:20.815Z,100.00
2023-02-06T09:59:30.017Z,100.00
2023-02-06T10:02:50.369Z,98.05
2023-02-06T10:06:02.477Z,95.79
2023-02-06T10:09:10.876Z,96.89
2023-02-06T10:12:19.067Z,96.03
2023-02-06T10:15:30.519Z,95.83
2023-02-06T10:18:40.289Z,94.55
2023-02-06T10:21:47.635Z,92.14
2023-02-06T10:25:07.100Z,93.80
2023-02-06T10:28:23.490Z,90.98
2023-02-06T10:31:47.703Z,88.49
2023-02-06T10:35:14.600Z,87.95
2023-02-06T10:38:40.123Z,88.41
2023-02-06T10:41:49.822Z,94.51
2023-02-06T10:45:13.189Z,93.31
2023-02-06T10:48:29.239Z,94.81
2023-02-06T10:51:36.502Z,91.62
2023-02-06T10:54:42.864Z,87.15
2023-02-06T10:57:47.088Z,78.05
2023-02-06T11:00:52.104Z,72.99
2023-02-06T11:04:00.904Z,69.66
2023-02-06T11:07:09.390Z,69.91
2023-02-06T11:10:15.162Z,67.94
2023-02-06T11:13:26.754Z,68.91
2023-02-06T11:16:30.874Z,65.48
2023-02-06T11:19:36.833Z,63.32
2023-02-06T11:22:51.291Z,60.04
2023-02-06T11:26:06.264Z,58.36
2023-02-06T11:29:15.375Z,57.47
2023-02-06T11:32:35.951Z,56.13
2023-02-06T11:35:41.160Z,54.82
2023-02-06T11:38:55.600Z,56.23
2023-02-06T11:42:03.471Z,54.81
2023-02-06T11:45:24.413Z,53.46
2023-02-06T11:48:37.024Z,55.22
2023-02-06T11:51:48.797Z,59.47
2023-02-06T11:55:01.536Z,62.55
2023-02-06T11:58:21.041Z,68.84
2023-02-06T12:01:23.666Z,71.87
2023-02-06T12:04:31.565Z,74.02
2023-02-06T12:07:40.414Z,75.74
2023-02-06T12:10:53.839Z,75.44
2023-02-06T12:14:02.190Z,78.91
2023-02-06T12:17:10.908Z,77.75
2023-02-06T12:20:19.727Z,76.81
2023-02-06T12:23:27.142Z,77.65
2023-02-06T12:26:34.473Z,76.41
2023-02-06T12:29:41.702Z,76.04
2023-02-06T12:32:50.191Z,77.33
2023-02-06T12:35:57.681Z,77.76
2023-02-06T12:39:03.570Z,78.89
2023-02-06T12:42:23.202Z,79.97
2023-02-06T12:45:37.533Z,79.75
2023-02-06T12:48:45.109Z,79.74
2023-02-06T12:51:54.735Z,80.29
2023-02-06T12:55:08.591Z,78.27
2023-02-06T12:58:28.891Z,74.29
2023-02-06T13:01:46.535Z,68.65
2023-02-06T13:04:50.092Z,65.83
2023-02-06T13:07:56.523Z,65.57
2023-02-06T13:11:05.848Z,62.73
2023-02-06T13:14:19.622Z,61.92
2023-02-06T13:17:24.785Z,59.90
2023-02-06T13:20:28.118Z,63.31
2023-02-06T13:23:30.709Z,58.52
2023-02-06T13:27:02.908Z,55.75
2023-02-06T13:30:50.581Z,53.94
2023-02-06T13:33:56.126Z,51.35
2023-02-06T13:37:22.641Z,49.09
2023-02-06T13:40:32.099Z,50.31
2023-02-06T13:43:35.649Z,48.69
2023-02-06T13:47:12.859Z,48.02
2023-02-06T13:50:39.085Z,48.41
2023-02-06T13:54:22.941Z,50.78
2023-02-06T13:57:39.648Z,50.16
2023-02-06T14:00:46.067Z,52.38
2023-02-06T14:03:51.679Z,53.23
2023-02-06T14:07:23.041Z,53.42
2023-02-06T14:10:54.620Z,53.45
2023-02-06T14:14:17.770Z,54.48
2023-02-06T14:17:37.023Z,55.06
2023-02-06T14:20:49.926Z,55.89
2023-02-06T14:24:12.208Z,58.10
2023-02-06T14:27:29.574Z,57.93
2023-02-06T14:30:38.568Z,58.31
2023-02-06T14:33:55.935Z,58.63
2023-02-06T14:37:17.838Z,59.81
2023-02-06T14:40:23.966Z,61.21
2023-02-06T14:43:30.544Z,61.00
2023-02-06T14:46:33.902Z,61.68
2023-02-06T14:49:38.862Z,63.83
2023-02-06T14:52:42.960Z,65.58
2023-02-06T14:55:46.968Z,69.97
2023-02-06T14:58:51.241Z,71.54
2023-02-06T15:01:56.053Z,73.13
2023-02-06T15:04:59.857Z,74.42
2023-02-06T15:08:06.864Z,75.32
2023-02-06T15:11:20.618Z,77.60
2023-02-06T15:14:25.993Z,76.46
2023-02-06T15:17:28.589Z,77.28
2023-02-06T15:20:36.025Z,79.12
2023-02-06T15:23:55.521Z,79.67
2023-02-06T15:27:05.332Z,81.02
2023-02-06T15:30:20.624Z,80.67
2023-02-06T15:33:25.176Z,82.19
2023-02-06T15:36:32.358Z,82.57
2023-02-06T15:39:36.429Z,83.38
2023-02-06T15:42:39.333Z,83.82
2023-02-06T15:45:43.948Z,83.98
2023-02-06T15:48:51.640Z,84.18
2023-02-06T15:51:55.888Z,84.73
2023-02-06T15:55:00.858Z,84.21
2023-02-06T15:58:05.789Z,85.16
2023-02-06T16:01:16.413Z,86.25
2023-02-06T16:04:24.120Z,85.72
2023-02-06T16:07:30.650Z,86.71
2023-02-06T16:10:38.674Z,86.35
2023-02-06T16:13:42.084Z,86.28
2023-02-06T16:16:57.114Z,87.30
2023-02-06T16:20:02.583Z,88.81
2023-02-06T16:23:25.513Z,88.34
2023-02-06T16:26:31.699Z,87.43
2023-02-06T16:29:34.420Z,88.16
2023-02-06T16:32:37.075Z,87.98
2023-02-06T16:35:39.657Z,88.40
2023-02-06T16:38:48.271Z,88.33
2023-02-06T16:41:55.324Z,88.98
2023-02-06T16:45:01.512Z,89.11
2023-02-06T16:48:04.360Z,89.49
2023-02-06T16:51:07.441Z,89.27
2023-02-06T16:54:18.638Z,89.86
2023-02-06T16:57:27.407Z,90.44
2023-02-06T17:00:32.055Z,90.05
2023-02-06T17:03:34.770Z,90.27
2023-02-06T17:06:37.926Z,90.81
2023-02-06T17:09:40.914Z,90.29
2023-02-06T17:12:45.269Z,91.48
2023-02-06T17:15:48.885Z,91.85
2023-02-06T17:18:52.321Z,91.50
2023-02-06T17:21:54.906Z,91.02
2023-02-06T17:24:57.511Z,91.35
2023-02-06T17:28:02.213Z,91.51
2023-02-06T17:31:05.086Z,90.87
2023-02-06T17:34:07.795Z,91.86
2023-02-06T17:37:20.431Z,91.89
2023-02-06T17:40:25.276Z,91.77
2023-02-06T17:43:29.587Z,92.26
2023-02-06T17:46:32.628Z,92.28
2023-02-06T17:49:35.331Z,92.75
2023-02-06T17:52:37.925Z,92.27
2023-02-06T17:55:40.730Z,93.33
2023-02-06T17:58:44.882Z,92.23
2023-02-06T18:01:47.507Z,92.34
2023-02-06T18:04:51.003Z,92.34
2023-02-06T18:07:53.730Z,92.21
2023-02-06T18:10:56.845Z,92.67
2023-02-06T18:14:00.782Z,92.63
2023-02-06T18:17:03.801Z,92.33
2023-02-06T18:20:07.083Z,92.41
2023-02-06T18:23:09.690Z,93.35
2023-02-06T18:26:12.892Z,93.59
2023-02-06T18:29:16.861Z,93.32
2023-02-06T18:32:19.995Z,93.22
2023-02-06T18:35:22.664Z,93.33
2023-02-06T18:38:25.488Z,93.13
2023-02-06T18:41:45.490Z,93.33
2023-02-06T18:44:49.439Z,92.71
2023-02-06T18:47:52.446Z,93.16
2023-02-06T18:50:56.495Z,93.32
2023-02-06T18:54:01.554Z,93.36
2023-02-06T18:57:04.361Z,93.82
2023-02-06T19:00:10.510Z,93.50
2023-02-06T19:03:13.106Z,93.49
2023-02-06T19:06:20.115Z,93.13
2023-02-06T19:09:22.792Z,93.19
2023-02-06T19:12:27.915Z,92.89
2023-02-06T19:15:34.290Z,93.12
2023-02-06T19:18:41.609Z,93.22
2023-02-06T19:21:45.234Z,92.66
2023-02-06T19:24:47.903Z,93.81
2023-02-06T19:27:50.539Z,93.53
2023-02-06T19:30:54.527Z,92.95
2023-02-06T19:34:00.793Z,93.23
2023-02-06T19:37:03.509Z,92.61
2023-02-06T19:40:06.727Z,92.70
2023-02-06T19:43:09.323Z,92.00
2023-02-06T19:46:14.968Z,92.64
2023-02-06T19:49:17.567Z,92.89
2023-02-06T19:52:20.816Z,92.43
2023-02-06T19:55:23.398Z,93.29
2023-02-06T19:58:28.930Z,93.09
2023-02-06T20:01:32.972Z,92.86
2023-02-06T20:04:37.761Z,92.57
2023-02-06T20:07:40.477Z,92.98
2023-02-06T20:10:43.131Z,93.57
2023-02-06T20:13:47.140Z,93.43
2023-02-06T20:16:51.318Z,93.24
2023-02-06T20:19:54.372Z,93.07
2023-02-06T20:22:56.959Z,93.44
2023-02-06T20:26:02.538Z,93.33
2023-02-06T20:29:06.512Z,93.02
2023-02-06T20:32:11.926Z,93.30
2023-02-06T20:35:14.564Z,92.81
2023-02-06T20:38:17.176Z,93.02
2023-02-06T20:41:21.466Z,92.92
2023-02-06T20:44:24.172Z,92.59
2023-02-06T20:47:28.364Z,92.26
2023-02-06T20:50:31.036Z,92.80
2023-02-06T20:53:33.661Z,92.28
2023-02-06T20:56:36.242Z,92.00
2023-02-06T20:59:39.285Z,91.53
2023-02-06T21:02:43.322Z,92.26
2023-02-06T21:05:46.059Z,93.08
2023-02-06T21:08:50.084Z,92.41
2023-02-06T21:11:52.696Z,92.39
2023-02-06T21:14:55.697Z,92.51
2023-02-06T21:17:59.689Z,92.30
2023-02-06T21:21:09.250Z,92.44
2023-02-06T21:24:12.367Z,92.50
2023-02-06T21:27:14.977Z,92.08
2023-02-06T21:30:17.785Z,92.89
2023-02-06T21:33:21.711Z,92.39
2023-02-06T21:36:24.348Z,91.91
2023-02-06T21:39:28.661Z,92.28
2023-02-06T21:42:31.240Z,92.69
2023-02-06T21:45:33.835Z,91.81
2023-02-06T21:48:37.991Z,92.01
2023-02-06T21:51:40.557Z,92.35
2023-02-06T21:54:43.156Z,91.74
2023-02-06T21:57:45.745Z,90.94
2023-02-06T22:00:48.688Z,92.20
2023-02-06T22:03:53.305Z,91.13
2023-02-06T22:06:55.937Z,91.28
2023-02-06T22:09:58.501Z,91.32
2023-02-06T22:13:01.109Z,91.83
2023-02-06T22:16:03.704Z,91.92
2023-02-06T22:19:08.368Z,92.16
2023-02-06T22:22:12.458Z,91.80
2023-02-06T22:25:15.076Z,91.52
2023-02-06T22:28:17.730Z,91.11
2023-02-06T22:31:22.345Z,91.45
2023-02-06T22:34:26.319Z,91.01
2023-02-06T22:37:31.595Z,90.74
2023-02-06T22:40:34.253Z,91.07
2023-02-06T22:43:38.867Z,91.15
2023-02-06T22:46:41.517Z,91.47
2023-02-06T22:49:45.793Z,91.94
2023-02-06T22:53:14.110Z,91.86
2023-02-06T22:56:37.132Z,92.19
2023-02-06T22:59:40.113Z,92.39
2023-02-06T23:02:42.707Z,92.93
2023-02-06T23:05:46.640Z,93.20
2023-02-06T23:08:49.283Z,92.74
2023-02-06T23:11:52.497Z,92.91
2023-02-06T23:14:55.247Z,92.72
2023-02-06T23:17:57.823Z,92.91
2023-02-06T23:21:03.659Z,92.90
2023-02-06T23:24:08.311Z,92.71
2023-02-06T23:27:10.939Z,92.99
2023-02-06T23:30:14.393Z,92.99
2023-02-06T23:33:17.081Z,92.90
2023-02-06T23:36:25.970Z,93.11
2023-02-06T23:39:28.563Z,93.23
2023-02-06T23:42:31.149Z,92.96
2023-02-06T23:45:34.384Z,93.15
2023-02-06T23:48:37.812Z,93.46
2023-02-06T23:51:41.796Z,93.41
2023-02-06T23:54:44.408Z,93.51
2023-02-06T23:57:47.205Z,93.45
